Time;durP1;ratioP1;P1;durP2;ratioP2;P2;SDS_P1;SDS_P2;PMS_P1;PMS_P2;Temp;Humidity;BMP_temperature;BMP_pressure;BME280_temperature;BME280_humidity;BME280_pressure;Samples;Min_cycle;Max_cycle;Signal;HPM_P1;HPM_P2
2021/03/31 00:00:32;;;;;;;24.70;19.85;;;;;;;11.48;52.12;102965.44;1702963;84;21156;-50
2021/03/31 00:03:02;;;;;;;25.62;19.32;;;;;;;11.46;51.96;102970.65;1693203;84;21181;-49
2021/03/31 00:05:30;;;;;;;27.30;19.67;;;;;;;11.44;51.95;102960.64;1679344;85;21202;-50
2021/03/31 00:07:59;;;;;;;25.30;19.45;;;;;;;11.39;51.79;102955.83;1746364;82;21186;-50
2021/03/31 00:10:45;;;;;;;23.25;19.17;;;;;;;11.34;51.64;102965.32;1747558;82;21133;-50
2021/03/31 00:13:13;;;;;;;24.57;20.80;;;;;;;11.30;51.71;102962.24;1767092;80;21156;-50
2021/03/31 00:15:41;;;;;;;24.80;19.82;;;;;;;11.21;51.97;102960.83;1779861;80;21164;-50
2021/03/31 00:18:10;;;;;;;27.32;19.52;;;;;;;11.16;51.99;102959.92;1773820;80;21148;-49
2021/03/31 00:20:39;;;;;;;28.42;19.52;;;;;;;11.13;52.22;102959.88;1779409;80;21120;-50
2021/03/31 00:23:07;;;;;;;23.38;18.23;;;;;;;11.10;52.28;102958.55;1770823;80;21309;-50
2021/03/31 00:25:37;;;;;;;30.35;20.55;;;;;;;11.06;52.36;102955.89;1776359;80;21184;-50
2021/03/31 00:28:06;;;;;;;26.37;20.10;;;;;;;10.99;52.39;102944.53;1777705;80;21164;-50
2021/03/31 00:30:34;;;;;;;25.62;20.35;;;;;;;10.90;52.61;102948.31;1777306;80;21216;-50
2021/03/31 00:33:02;;;;;;;25.62;21.00;;;;;;;10.86;52.73;102952.20;1770269;80;21160;-50
2021/03/31 00:35:31;;;;;;;27.90;21.05;;;;;;;10.85;52.81;102956.94;1776418;80;21168;-50
2021/03/31 00:37:59;;;;;;;25.05;19.52;;;;;;;10.79;52.88;102953.84;1771178;80;21160;-50
2021/03/31 00:40:30;;;;;;;24.27;19.48;;;;;;;10.75;53.03;102952.06;1771844;80;21152;-49
2021/03/31 00:42:57;;;;;;;25.57;18.98;;;;;;;10.73;53.17;102957.67;1771543;80;21105;-50
2021/03/31 00:45:25;;;;;;;28.05;19.55;;;;;;;10.72;53.35;102952.42;1776090;80;21303;-50
2021/03/31 00:47:53;;;;;;;25.57;19.77;;;;;;;10.69;53.29;102948.08;1776035;80;21144;-50
2021/03/31 00:50:21;;;;;;;25.60;19.45;;;;;;;10.68;53.35;102944.13;1716902;83;21642;-50
2021/03/31 00:52:52;;;;;;;22.42;19.52;;;;;;;10.69;53.24;102938.97;1770378;80;21585;-50
2021/03/31 00:55:23;;;;;;;26.77;19.73;;;;;;;10.66;53.19;102935.01;1778972;80;21152;-50
2021/03/31 00:57:51;;;;;;;25.90;19.42;;;;;;;10.60;53.22;102942.75;1781476;80;21149;-50
2021/03/31 01:00:21;;;;;;;21.68;18.55;;;;;;;10.55;53.42;102940.53;1780481;80;21145;-50
2021/03/31 01:02:48;;;;;;;22.75;18.95;;;;;;;10.51;53.67;102942.61;1770629;80;21199;-49
2021/03/31 01:05:26;;;;;;;25.48;19.10;;;;;;;10.47;53.78;102946.91;1716861;83;21340;-50
2021/03/31 01:07:54;;;;;;;24.57;18.25;;;;;;;10.46;54.03;102941.69;1782128;80;21315;-50
2021/03/31 01:10:27;;;;;;;25.23;19.50;;;;;;;10.51;53.93;102943.91;1771011;80;21176;-49
2021/03/31 01:13:33;;;;;;;22.40;17.90;;;;;;;10.50;53.84;102940.88;1682359;85;21205;-50
2021/03/31 01:16:42;;;;;;;20.92;17.92;;;;;;;10.51;53.81;102937.41;1682072;85;21180;-50
2021/03/31 01:19:40;;;;;;;22.70;18.05;;;;;;;10.50;53.69;102929.17;1799925;79;23391;-50
2021/03/31 01:22:36;;;;;;;22.00;18.37;;;;;;;10.45;53.64;102932.13;1790741;80;21144;-50
2021/03/31 01:25:37;;;;;;;23.55;18.75;;;;;;;10.38;53.83;102932.91;1768912;80;21156;-50
2021/03/31 01:28:18;;;;;;;26.62;18.77;;;;;;;10.30;54.20;102937.14;1722469;83;21155;-50
2021/03/31 01:31:16;;;;;;;21.75;17.15;;;;;;;10.35;54.35;102936.76;1771411;79;23097;-50
2021/03/31 01:34:19;;;;;;;22.30;17.70;;;;;;;10.31;54.46;102939.75;1730579;82;21148;-50
2021/03/31 01:36:48;;;;;;;23.98;19.30;;;;;;;10.35;54.53;102935.45;1738346;82;21116;-49
2021/03/31 01:39:16;;;;;;;26.07;19.15;;;;;;;10.32;54.39;102941.52;1737916;82;21176;-50
2021/03/31 01:41:44;;;;;;;24.87;19.50;;;;;;;10.31;54.53;102937.57;1735400;82;21113;-49
2021/03/31 01:44:14;;;;;;;25.15;18.55;;;;;;;10.24;54.63;102937.05;1715591;82;21152;-49
2021/03/31 01:46:47;;;;;;;25.60;17.87;;;;;;;10.21;54.68;102938.30;1745133;82;21183;-50
2021/03/31 01:49:15;;;;;;;24.82;18.05;;;;;;;10.20;54.83;102941.31;1741279;82;21180;-49
2021/03/31 01:51:43;;;;;;;23.83;17.82;;;;;;;10.18;54.89;102936.97;1740282;82;21160;-51
2021/03/31 01:54:15;;;;;;;24.65;18.10;;;;;;;10.19;54.93;102938.70;1719225;82;21168;-50
2021/03/31 01:56:43;;;;;;;28.75;18.25;;;;;;;10.19;54.85;102938.70;1741994;81;21592;-50
2021/03/31 01:59:11;;;;;;;20.82;17.50;;;;;;;10.20;54.62;102936.11;1715912;82;21121;-50
2021/03/31 02:01:39;;;;;;;22.73;18.12;;;;;;;10.19;54.42;102941.30;1738277;82;21136;-50
2021/03/31 02:04:07;;;;;;;26.15;19.17;;;;;;;10.16;54.22;102933.47;1735202;82;21128;-50
2021/03/31 02:06:36;;;;;;;26.40;19.60;;;;;;;10.12;54.45;102933.83;1737954;82;21136;-50
2021/03/31 02:09:05;;;;;;;25.95;20.10;;;;;;;10.10;54.49;102933.35;1738247;82;21173;-50
2021/03/31 02:11:33;;;;;;;23.52;19.02;;;;;;;10.06;54.15;102932.83;1724094;82;21136;-50
2021/03/31 02:14:00;;;;;;;23.18;18.60;;;;;;;10.04;54.10;102931.93;1714859;82;21168;-50
2021/03/31 02:16:31;;;;;;;24.80;19.17;;;;;;;10.01;54.05;102930.60;1714755;82;21176;-50
2021/03/31 02:18:59;;;;;;;24.00;19.30;;;;;;;9.98;54.16;102925.34;1742147;82;21160;-50
2021/03/31 02:21:27;;;;;;;29.32;20.50;;;;;;;9.98;54.16;102925.34;1739420;82;21172;-50
2021/03/31 02:23:55;;;;;;;25.95;21.55;;;;;;;9.96;54.36;102929.64;1740135;82;21169;-50
2021/03/31 02:26:26;;;;;;;28.15;21.75;;;;;;;9.92;54.25;102929.14;1724230;80;21338;-50
2021/03/31 02:28:56;;;;;;;26.75;22.07;;;;;;;9.89;54.21;102933.02;1734572;82;21315;-50
2021/03/31 02:31:24;;;;;;;29.63;22.75;;;;;;;9.83;54.23;102926.86;1745327;81;21331;-49
2021/03/31 02:33:52;;;;;;;26.55;20.95;;;;;;;9.91;54.16;102930.02;1733158;82;21200;-50
2021/03/31 02:36:24;;;;;;;28.83;22.75;;;;;;;9.97;54.07;102931.41;1734609;82;21109;-50
2021/03/31 02:38:53;;;;;;;29.52;22.65;;;;;;;9.95;54.09;102923.59;1734985;82;21208;-50
2021/03/31 02:41:22;;;;;;;28.47;22.07;;;;;;;9.95;54.21;102930.51;1739630;82;21212;-50
2021/03/31 02:43:52;;;;;;;30.92;21.73;;;;;;;9.94;54.09;102926.14;1738022;82;21156;-50
2021/03/31 02:46:20;;;;;;;28.98;21.97;;;;;;;9.94;54.16;102926.14;1740626;82;21577;-50
2021/03/31 02:48:50;;;;;;;28.42;21.50;;;;;;;9.92;54.21;102927.84;1741406;82;21148;-50
2021/03/31 02:51:18;;;;;;;28.25;22.73;;;;;;;9.92;54.35;102930.45;1741223;82;21153;-50
2021/03/31 02:53:48;;;;;;;28.95;22.58;;;;;;;9.90;54.29;102936.05;1740349;82;21156;-50
2021/03/31 02:56:17;;;;;;;24.05;19.48;;;;;;;9.85;54.38;102927.75;1738381;82;21166;-50
2021/03/31 02:58:45;;;;;;;27.48;21.35;;;;;;;9.85;54.50;102929.05;1738262;82;21322;-50
2021/03/31 03:01:13;;;;;;;26.65;21.68;;;;;;;9.85;54.68;102924.27;1738267;82;21160;-50
2021/03/31 03:03:41;;;;;;;29.23;22.48;;;;;;;9.88;54.57;102926.94;1726297;82;21144;-49
2021/03/31 03:06:10;;;;;;;27.30;21.57;;;;;;;9.89;54.54;102930.42;1738613;81;21177;-50
2021/03/31 03:08:38;;;;;;;29.25;21.42;;;;;;;9.89;54.51;102930.00;1734691;82;21278;-50
2021/03/31 03:11:06;;;;;;;25.62;21.40;;;;;;;9.88;54.62;102920.85;1741296;82;21309;-50
2021/03/31 03:13:34;;;;;;;28.35;21.62;;;;;;;9.88;54.62;102927.35;1739268;82;21216;-50
2021/03/31 03:16:04;;;;;;;28.90;21.77;;;;;;;9.90;54.58;102928.25;1739475;82;21176;-50
2021/03/31 03:18:33;;;;;;;24.40;20.85;;;;;;;9.93;54.54;102929.61;1740569;82;21192;-50
2021/03/31 03:21:01;;;;;;;25.97;19.60;;;;;;;9.84;54.90;102933.83;1710955;82;21318;-50
2021/03/31 03:23:30;;;;;;;27.13;20.88;;;;;;;9.84;54.91;102935.13;1742857;82;21569;-49
2021/03/31 03:25:59;;;;;;;24.60;20.08;;;;;;;9.76;54.93;102930.23;1740776;82;21129;-50
2021/03/31 03:28:28;;;;;;;27.62;21.23;;;;;;;9.76;54.85;102935.42;1738413;82;21160;-50
2021/03/31 03:30:56;;;;;;;25.85;21.90;;;;;;;9.72;54.88;102933.62;1713909;82;21153;-50
2021/03/31 03:33:25;;;;;;;27.17;21.42;;;;;;;9.69;54.84;102940.48;1727366;82;21160;-49
2021/03/31 03:35:53;;;;;;;28.47;21.57;;;;;;;9.62;55.02;102936.90;1735454;82;21549;-50
2021/03/31 03:38:23;;;;;;;27.13;21.50;;;;;;;9.57;55.36;102933.37;1713990;82;21600;-50
2021/03/31 03:40:51;;;;;;;27.05;20.65;;;;;;;9.54;55.67;102935.90;1731763;82;21169;-50
2021/03/31 03:43:19;;;;;;;30.05;25.32;;;;;;;9.53;55.69;102938.06;1735564;82;21149;-50
2021/03/31 03:45:48;;;;;;;41.75;26.25;;;;;;;9.51;55.58;102940.17;1722387;82;21176;-50
2021/03/31 03:48:16;;;;;;;31.73;22.37;;;;;;;9.51;55.67;102937.58;1662276;82;21148;-50
2021/03/31 03:50:44;;;;;;;25.77;20.43;;;;;;;9.51;55.58;102937.16;1731270;82;21335;-50
2021/03/31 03:53:12;;;;;;;24.05;19.90;;;;;;;9.48;55.66;102937.55;1734090;82;21298;-50
2021/03/31 03:55:40;;;;;;;23.80;18.50;;;;;;;9.50;55.80;102941.05;1729900;82;21581;-51
2021/03/31 03:58:09;;;;;;;21.00;18.15;;;;;;;9.48;55.99;102940.99;1729209;82;21153;-51
2021/03/31 04:00:37;;;;;;;26.20;18.42;;;;;;;9.50;56.19;102941.89;1734608;82;21608;-49
2021/03/31 04:03:05;;;;;;;20.20;17.73;;;;;;;9.53;56.17;102938.06;1735606;82;21137;-50
2021/03/31 04:05:34;;;;;;;23.02;19.23;;;;;;;9.54;56.11;102939.80;1734632;82;21169;-50
2021/03/31 04:08:04;;;;;;;29.02;20.32;;;;;;;9.54;56.04;102938.50;1732611;82;21589;-50
2021/03/31 04:10:32;;;;;;;23.65;20.57;;;;;;;9.53;56.08;102936.77;1738357;82;21156;-50
2021/03/31 04:13:01;;;;;;;22.98;19.55;;;;;;;9.53;56.22;102940.66;1717797;82;21141;-49
2021/03/31 04:15:29;;;;;;;24.67;19.40;;;;;;;9.53;56.41;102941.96;1736221;81;21617;-50
2021/03/31 04:17:57;;;;;;;23.12;18.62;;;;;;;9.54;56.52;102939.80;1735470;82;21185;-50
2021/03/31 04:20:26;;;;;;;22.52;18.48;;;;;;;9.55;56.63;102938.97;1733482;82;21136;-50
2021/03/31 04:22:54;;;;;;;24.65;19.52;;;;;;;9.56;56.65;102936.80;1732352;82;21113;-49
2021/03/31 04:25:24;;;;;;;23.42;19.48;;;;;;;9.54;56.60;102938.50;1729955;82;21133;-50
2021/03/31 04:27:54;;;;;;;22.73;18.85;;;;;;;9.53;56.65;102935.47;1732257;82;21172;-50
2021/03/31 04:30:23;;;;;;;23.47;18.25;;;;;;;9.53;56.62;102936.77;1729385;82;21141;-50
2021/03/31 04:32:52;;;;;;;26.37;19.25;;;;;;;9.52;56.66;102936.30;1724981;82;21125;-50
2021/03/31 04:35:22;;;;;;;22.95;18.57;;;;;;;9.52;56.69;102935.45;1724938;82;21287;-50
2021/03/31 04:37:52;;;;;;;22.27;17.32;;;;;;;9.53;56.72;102931.56;1723940;82;21562;-51
2021/03/31 04:40:20;;;;;;;22.10;17.90;;;;;;;9.54;56.70;102933.30;1726770;82;21133;-50
2021/03/31 04:42:48;;;;;;;23.95;18.10;;;;;;;9.53;56.83;102934.16;1724427;82;21211;-50
2021/03/31 04:45:19;;;;;;;23.20;19.40;;;;;;;9.55;56.94;102932.47;1724230;82;21553;-50
2021/03/31 04:47:47;;;;;;;24.52;19.45;;;;;;;9.60;56.84;102938.59;1725037;82;21755;-50
2021/03/31 04:50:16;;;;;;;24.70;19.57;;;;;;;9.65;56.80;102934.78;1724295;82;21173;-49
2021/03/31 04:52:45;;;;;;;23.18;18.77;;;;;;;9.75;56.60;102931.06;1725063;82;21541;-49
2021/03/31 04:55:13;;;;;;;25.88;18.42;;;;;;;9.80;56.65;102934.63;1721091;82;21534;-50
2021/03/31 04:57:41;;;;;;;20.70;18.30;;;;;;;9.84;56.57;102931.22;1727388;82;21140;-50
2021/03/31 05:00:13;;;;;;;21.52;18.98;;;;;;;9.88;56.42;102927.35;1726829;82;21605;-50
2021/03/31 05:02:40;;;;;;;29.52;19.55;;;;;;;9.89;56.34;102926.52;1724336;82;21192;-50
2021/03/31 05:05:09;;;;;;;22.82;18.85;;;;;;;9.91;56.09;102923.52;1726921;82;21581;-51
2021/03/31 05:07:37;;;;;;;21.82;19.48;;;;;;;9.91;56.30;102929.59;1722830;82;21169;-50
2021/03/31 05:10:08;;;;;;;23.87;19.65;;;;;;;9.96;56.32;102928.34;1728963;82;21153;-49
2021/03/31 05:12:35;;;;;;;30.25;19.15;;;;;;;9.99;56.31;102927.98;1727382;82;21140;-50
2021/03/31 05:15:06;;;;;;;21.95;18.80;;;;;;;10.03;56.34;102926.30;1724950;82;21101;-50
2021/03/31 05:17:34;;;;;;;29.18;20.00;;;;;;;10.07;56.28;102922.89;1724674;82;21157;-50
2021/03/31 05:20:05;;;;;;;26.50;21.20;;;;;;;10.10;56.25;102928.16;1724491;82;21543;-50
2021/03/31 05:22:34;;;;;;;27.27;22.02;;;;;;;10.10;56.27;102930.75;1724518;82;21157;-50
2021/03/31 05:25:05;;;;;;;23.70;20.55;;;;;;;9.97;56.70;102926.20;1724447;81;21169;-50
2021/03/31 05:27:33;;;;;;;24.40;18.55;;;;;;;9.97;56.89;102924.91;1724383;82;21612;-50
2021/03/31 05:30:05;;;;;;;22.65;19.12;;;;;;;10.00;57.06;102926.23;1726750;81;21145;-51
2021/03/31 05:32:33;;;;;;;26.52;19.60;;;;;;;10.00;57.02;102921.91;1671297;84;21363;-50
2021/03/31 05:35:02;;;;;;;24.43;19.25;;;;;;;10.00;57.22;102929.72;1681604;84;21227;-50
2021/03/31 05:37:31;;;;;;;27.37;19.20;;;;;;;9.98;57.45;102927.94;1683959;84;21176;-50
2021/03/31 05:39:59;;;;;;;23.95;18.50;;;;;;;9.99;57.58;102928.41;1684092;84;21394;-50
2021/03/31 05:42:27;;;;;;;25.40;19.20;;;;;;;10.07;57.38;102928.09;1681900;84;21200;-50
2021/03/31 05:44:55;;;;;;;20.97;17.23;;;;;;;10.13;57.47;102928.21;1682977;84;21628;-50
2021/03/31 05:49:59;;;;;;;23.38;18.40;;;;;;;10.25;57.33;102925.36;1810432;79;22455;-50
2021/03/31 05:52:27;;;;;;;24.82;19.65;;;;;;;10.16;57.41;102928.27;1777207;80;21290;-50
2021/03/31 05:54:55;;;;;;;25.43;19.02;;;;;;;10.19;57.53;102936.10;1776942;80;21176;-50
2021/03/31 05:57:23;;;;;;;25.82;18.67;;;;;;;10.31;57.51;102936.27;1775640;80;21117;-50
2021/03/31 05:59:52;;;;;;;20.82;18.10;;;;;;;10.51;57.17;102934.80;1778432;80;21152;-49
2021/03/31 06:02:20;;;;;;;25.52;17.95;;;;;;;10.79;56.44;102929.11;1783416;80;21298;-50
2021/03/31 06:04:51;;;;;;;24.00;18.20;;;;;;;11.04;55.94;102928.53;1765387;80;21156;-50
2021/03/31 06:07:20;;;;;;;24.20;17.63;;;;;;;11.21;55.90;102932.16;1780423;80;21585;-50
2021/03/31 06:10:15;;;;;;;20.45;16.02;;;;;;;11.51;55.26;102925.08;1770152;80;21187;-50
2021/03/31 06:13:01;;;;;;;24.75;16.93;;;;;;;11.83;54.70;102924.08;1776844;80;21298;-51
2021/03/31 06:15:39;;;;;;;22.73;16.32;;;;;;;12.15;53.69;102929.08;1773771;80;21164;-51
2021/03/31 06:18:16;;;;;;;19.32;16.12;;;;;;;12.36;53.20;102934.44;1777095;80;21189;-51
2021/03/31 06:21:02;;;;;;;18.15;15.68;;;;;;;12.58;52.49;102936.70;1781075;80;21172;-50
2021/03/31 06:26:33;;;;;;;18.60;15.03;;;;;;;12.80;51.96;102938.10;1771647;80;21151;-50
2021/03/31 06:29:07;;;;;;;16.52;14.47;;;;;;;12.96;51.79;102935.97;1777330;80;21164;-52
2021/03/31 06:31:44;;;;;;;20.45;15.10;;;;;;;13.24;51.38;102930.84;1774370;80;21181;-51
2021/03/31 06:34:23;;;;;;;16.15;14.47;;;;;;;13.52;50.66;102932.61;1781946;80;21183;-50
2021/03/31 06:36:58;;;;;;;22.60;15.05;;;;;;;13.66;49.95;102930.91;1776633;80;21155;-51
2021/03/31 06:39:34;;;;;;;17.45;15.45;;;;;;;13.62;49.79;102926.08;1773338;80;21148;-50
2021/03/31 06:42:14;;;;;;;17.95;15.15;;;;;;;13.60;49.79;102924.36;1734848;81;21154;-51
2021/03/31 06:47:52;;;;;;;17.32;15.43;;;;;;;13.61;49.62;102916.94;1771569;79;23527;-50
2021/03/31 06:50:17;;;;;;;16.25;14.58;;;;;;;13.53;49.80;102920.88;1736865;82;21291;-50
2021/03/31 06:52:55;;;;;;;17.98;15.43;;;;;;;13.49;49.87;102923.05;1734465;82;21152;-50
2021/03/31 06:55:25;;;;;;;17.87;14.45;;;;;;;13.47;50.22;102923.91;1738547;82;21145;-50
2021/03/31 06:57:55;;;;;;;17.82;14.25;;;;;;;13.52;50.23;102920.84;1734570;82;21152;-50
2021/03/31 07:00:32;;;;;;;16.52;14.47;;;;;;;13.54;50.13;102921.29;1740301;82;21220;-50
2021/03/31 07:03:07;;;;;;;14.45;12.93;;;;;;;13.57;50.26;102923.05;1737897;82;21152;-50
2021/03/31 07:05:40;;;;;;;15.23;13.62;;;;;;;13.64;49.89;102920.88;1738853;82;21148;-51
2021/03/31 07:08:15;;;;;;;14.07;12.18;;;;;;;13.62;49.79;102921.31;1745376;82;21195;-50
2021/03/31 07:10:53;;;;;;;15.85;12.50;;;;;;;13.55;49.91;102911.70;1738656;82;21160;-50
2021/03/31 07:13:35;;;;;;;13.68;11.55;;;;;;;13.52;50.01;102914.31;1737717;82;21209;-51
2021/03/31 07:16:05;;;;;;;13.43;11.55;;;;;;;13.56;50.13;102913.47;1738558;82;21141;-51
2021/03/31 07:18:34;;;;;;;16.32;12.88;;;;;;;13.56;49.89;102915.63;1737492;82;21673;-50
2021/03/31 07:21:05;;;;;;;11.75;10.55;;;;;;;13.53;50.05;102916.07;1740518;82;21156;-50
2021/03/31 07:23:33;;;;;;;19.80;12.45;;;;;;;13.57;50.12;102912.58;1735243;82;21184;-50
2021/03/31 07:26:01;;;;;;;13.75;12.30;;;;;;;13.63;50.00;102913.88;1724219;82;21569;-50
2021/03/31 07:28:30;;;;;;;13.00;11.50;;;;;;;13.70;50.03;102914.33;1744751;82;21144;-50
2021/03/31 07:30:59;;;;;;;13.53;11.43;;;;;;;13.75;49.66;102911.26;1732617;82;21140;-51
2021/03/31 07:33:29;;;;;;;14.47;12.78;;;;;;;13.78;49.79;102909.97;1742419;82;21188;-50
2021/03/31 07:35:57;;;;;;;14.73;13.18;;;;;;;13.79;49.95;102912.57;1713209;82;21160;-50
2021/03/31 07:38:26;;;;;;;18.27;13.62;;;;;;;13.80;49.98;102910.83;1744636;82;21290;-50
2021/03/31 07:40:56;;;;;;;15.40;12.65;;;;;;;13.78;49.82;102903.00;1704971;83;21160;-50
2021/03/31 07:43:36;;;;;;;15.35;13.25;;;;;;;13.71;49.92;102897.75;1713051;82;21178;-50
2021/03/31 07:46:11;;;;;;;14.55;12.90;;;;;;;13.61;50.19;102897.31;1687957;84;21305;-50
2021/03/31 07:48:41;;;;;;;16.80;12.88;;;;;;;13.50;50.23;102899.05;1669093;85;21331;-51
2021/03/31 07:51:19;;;;;;;36.80;16.97;;;;;;;13.41;50.71;102892.53;1809668;79;22753;-50
2021/03/31 07:53:50;;;;;;;14.30;12.78;;;;;;;13.31;50.89;102887.73;1731624;82;21177;-50
2021/03/31 07:56:22;;;;;;;20.15;14.50;;;;;;;13.32;51.36;102888.59;1735703;82;21218;-50
2021/03/31 07:59:10;;;;;;;15.10;12.85;;;;;;;13.33;50.97;102894.27;1734781;82;21175;-50
2021/03/31 08:01:47;;;;;;;15.83;13.78;;;;;;;13.24;51.08;102887.71;1735692;82;21340;-50
2021/03/31 08:04:23;;;;;;;19.30;14.28;;;;;;;13.18;50.96;102880.75;1810175;79;22958;-50
2021/03/31 08:06:53;;;;;;;18.87;14.35;;;;;;;13.06;51.43;102882.89;1783913;80;21164;-50
2021/03/31 08:09:30;;;;;;;16.40;13.38;;;;;;;13.02;51.67;102885.02;1776868;80;21298;-50
2021/03/31 08:11:59;;;;;;;14.65;12.93;;;;;;;13.02;51.80;102884.17;1776554;80;21200;-50
2021/03/31 08:14:35;;;;;;;15.05;13.43;;;;;;;13.10;51.82;102880.29;1775985;80;21314;-50
2021/03/31 08:17:08;;;;;;;15.53;13.78;;;;;;;13.12;51.87;102876.81;1768522;80;21172;-51
2021/03/31 08:19:42;;;;;;;16.48;13.88;;;;;;;13.19;51.86;102880.31;1780293;80;21156;-50
2021/03/31 08:22:37;;;;;;;19.10;13.80;;;;;;;13.30;51.72;102873.34;1780047;80;21132;-50
2021/03/31 08:25:22;;;;;;;20.52;15.23;;;;;;;13.34;51.26;102875.96;1766705;80;21561;-50
2021/03/31 08:28:04;;;;;;;15.93;14.03;;;;;;;13.35;51.44;102871.19;1773458;80;21160;-50
2021/03/31 08:30:34;;;;;;;;;;;;;;;13.38;51.50;102868.98;1698869;84;21188;-50
2021/03/31 08:33:04;;;;;;;19.35;14.70;;;;;;;13.38;51.47;102866.36;1684995;84;20501;-50
2021/03/31 08:35:33;;;;;;;16.05;13.85;;;;;;;13.39;51.15;102868.13;1697197;84;21204;-50
2021/03/31 08:38:09;;;;;;;15.60;13.77;;;;;;;13.32;51.12;102854.17;1684621;84;21177;-50
2021/03/31 08:40:44;;;;;;;16.25;13.20;;;;;;;13.31;51.11;102854.17;1812913;79;23123;-50
2021/03/31 08:43:12;;;;;;;17.05;13.25;;;;;;;13.26;51.46;102858.09;1783977;80;21656;-50
2021/03/31 08:45:42;;;;;;;13.90;12.40;;;;;;;13.30;51.37;102860.27;1783919;80;21187;-50
2021/03/31 08:48:10;;;;;;;18.55;15.00;;;;;;;13.39;51.38;102852.44;1726504;83;21178;-49
2021/03/31 08:50:41;;;;;;;17.95;13.30;;;;;;;13.45;51.42;102856.35;1756309;81;21152;-50
2021/03/31 08:53:11;;;;;;;16.27;14.20;;;;;;;13.51;51.38;102852.42;1725351;82;21159;-51
2021/03/31 08:55:41;;;;;;;16.40;12.93;;;;;;;13.57;50.91;102849.80;1744386;81;21132;-50
2021/03/31 08:58:11;;;;;;;14.45;12.70;;;;;;;13.60;50.54;102845.89;1725375;83;21367;-50
2021/03/31 09:00:45;;;;;;;16.57;13.13;;;;;;;13.60;50.50;102839.35;1711210;83;21294;-50
2021/03/31 09:03:20;;;;;;;13.65;11.83;;;;;;;13.59;50.56;102837.59;1774327;79;23056;-50
2021/03/31 09:05:56;;;;;;;15.10;12.07;;;;;;;13.61;49.96;102838.45;1740600;82;21160;-50
2021/03/31 09:08:24;;;;;;;15.75;12.07;;;;;;;13.57;49.59;102838.91;1736998;82;21156;-51
2021/03/31 09:11:02;;;;;;;15.25;12.30;;;;;;;13.60;49.64;102834.12;1738657;82;21179;-51
2021/03/31 09:13:34;;;;;;;17.50;12.40;;;;;;;13.63;49.29;102834.98;1745223;80;21196;-50
2021/03/31 09:16:09;;;;;;;12.33;10.72;;;;;;;13.70;48.86;102827.99;1738827;81;21156;-51
2021/03/31 09:18:42;;;;;;;14.45;12.23;;;;;;;13.78;47.81;102824.92;1737117;82;21576;-51
2021/03/31 09:21:13;;;;;;;16.75;11.68;;;;;;;13.77;47.17;102828.39;1736551;82;21171;-50
2021/03/31 09:23:46;;;;;;;;;;;;;;;13.80;47.12;102821.87;1619598;88;21215;-48
2021/03/31 09:26:14;;;;;;;11.30;9.85;;;;;;;13.86;47.00;102817.92;1618035;89;20464;-49
2021/03/31 09:28:41;;;;;;;18.77;11.20;;;;;;;13.93;46.78;102822.25;1618043;89;21622;-49
2021/03/31 09:31:19;;;;;;;13.83;10.90;;;;;;;13.98;46.58;102815.27;1617887;89;21168;-49
2021/03/31 09:33:44;;;;;;;14.80;11.53;;;;;;;14.05;46.11;102814.81;1615887;89;21627;-50
2021/03/31 09:36:17;;;;;;;16.25;12.63;;;;;;;14.06;46.59;102814.80;1618366;89;21668;-50
2021/03/31 09:38:48;;;;;;;13.72;12.25;;;;;;;14.07;47.42;102821.80;1608558;89;21580;-50
2021/03/31 09:41:25;;;;;;;14.07;12.58;;;;;;;14.28;47.14;102814.30;1778360;79;23146;-50
2021/03/31 09:43:53;;;;;;;16.60;13.83;;;;;;;14.26;47.36;102812.97;1737342;82;21188;-50
2021/03/31 09:46:29;;;;;;;13.60;12.07;;;;;;;14.27;47.57;102817.34;1737127;82;21180;-50
2021/03/31 09:48:57;;;;;;;14.50;12.95;;;;;;;14.26;47.82;102817.36;1741967;82;21212;-50
2021/03/31 09:51:25;;;;;;;17.95;12.68;;;;;;;14.26;48.19;102806.42;1712734;82;21149;-50
2021/03/31 09:53:53;;;;;;;18.23;12.68;;;;;;;14.24;47.80;102801.62;1732418;82;21326;-50
2021/03/31 09:56:22;;;;;;;13.68;12.00;;;;;;;14.18;48.17;102801.66;1744597;82;21298;-50
2021/03/31 09:58:50;;;;;;;14.35;11.78;;;;;;;14.00;48.89;102795.63;1724231;82;21153;-49
2021/03/31 10:01:19;;;;;;;18.02;13.15;;;;;;;13.99;49.12;102792.59;1724309;82;21133;-51
2021/03/31 10:03:51;;;;;;;15.78;13.43;;;;;;;13.94;49.11;102791.28;1737981;82;21572;-49
2021/03/31 10:06:26;;;;;;;17.05;14.45;;;;;;;13.94;49.49;102786.05;1715847;82;21310;-50
2021/03/31 10:08:54;;;;;;;18.85;13.28;;;;;;;13.99;49.96;102783.00;1734600;82;21140;-51
2021/03/31 10:11:30;;;;;;;16.82;13.65;;;;;;;14.16;49.45;102786.39;1742343;82;21601;-51
2021/03/31 10:14:06;;;;;;;16.95;13.62;;;;;;;14.29;49.28;102776.34;1773485;79;23564;-50
2021/03/31 10:16:39;;;;;;;19.12;13.93;;;;;;;14.28;49.00;102773.27;1676691;84;21199;-50
2021/03/31 10:19:13;;;;;;;15.95;13.10;;;;;;;14.32;49.25;102773.69;1818686;79;22942;-50
2021/03/31 10:21:42;;;;;;;17.35;12.73;;;;;;;14.29;49.06;102773.72;1695090;83;21321;-49
2021/03/31 10:24:13;;;;;;;14.35;12.85;;;;;;;14.32;48.68;102775.47;1724048;83;21628;-50
2021/03/31 10:26:48;;;;;;;15.40;13.15;;;;;;;14.27;48.84;102775.45;1724059;83;21146;-50
2021/03/31 10:29:23;;;;;;;14.63;12.40;;;;;;;14.19;49.24;102779.84;1727085;83;21170;-50
2021/03/31 10:31:54;;;;;;;13.60;12.20;;;;;;;14.29;48.86;102773.72;1720832;83;21359;-50
2021/03/31 10:34:23;;;;;;;16.32;12.68;;;;;;;14.20;49.11;102778.95;1719308;83;21170;-51
2021/03/31 10:37:00;;;;;;;13.55;12.07;;;;;;;14.37;48.78;102774.55;1725211;83;21140;-50
2021/03/31 10:51:42;;;;;;;16.02;11.80;;;;;;;14.48;46.96;102754.41;1700822;83;21187;-50
2021/03/31 10:54:11;;;;;;;13.15;11.35;;;;;;;14.45;47.16;102755.73;1709501;83;21677;-50
2021/03/31 10:56:46;;;;;;;13.28;11.00;;;;;;;14.41;47.31;102749.20;1700664;83;21198;-50
2021/03/31 10:59:09;;;;;;;11.65;10.32;;;;;;;14.40;46.74;102740.50;1712580;83;21245;-50
2021/03/31 11:01:38;;;;;;;12.07;10.58;;;;;;;14.40;46.54;102747.48;1689174;83;21120;-50
2021/03/31 11:04:05;;;;;;;12.45;10.82;;;;;;;14.40;46.13;102741.81;1704185;83;21619;-50
2021/03/31 11:06:35;;;;;;;15.03;10.78;;;;;;;14.41;46.37;102739.60;1711731;83;21342;-50
2021/03/31 11:09:05;;;;;;;11.25;10.05;;;;;;;14.45;46.51;102734.77;1707917;83;21170;-50
2021/03/31 11:11:34;;;;;;;11.57;9.78;;;;;;;14.49;45.90;102732.56;1709045;83;21187;-50
2021/03/31 11:14:02;;;;;;;11.05;9.03;;;;;;;14.53;45.57;102727.73;1708176;83;21172;-51
2021/03/31 11:16:31;;;;;;;10.10;8.88;;;;;;;14.57;45.71;102729.45;1710556;83;21183;-50
2021/03/31 11:26:53;;;;;;;8.80;7.90;;;;;;;14.74;44.45;102723.20;1768328;81;21609;-50
2021/03/31 11:29:22;;;;;;;8.95;8.05;;;;;;;14.79;43.91;102723.62;1770664;81;21137;-51
2021/03/31 11:31:50;;;;;;;10.90;8.83;;;;;;;14.66;43.24;102722.84;1766999;81;21579;-50
2021/03/31 11:34:18;;;;;;;8.68;7.65;;;;;;;14.65;43.83;102715.85;1743955;81;21172;-50
2021/03/31 11:36:50;;;;;;;9.25;7.72;;;;;;;14.71;43.22;102719.32;1768738;81;21593;-50
2021/03/31 11:39:18;;;;;;;9.40;8.10;;;;;;;14.73;42.00;102714.94;1766060;81;21180;-50
2021/03/31 11:41:46;;;;;;;8.83;7.95;;;;;;;14.72;42.03;102710.56;1766518;81;21145;-50
2021/03/31 11:44:14;;;;;;;13.83;9.40;;;;;;;14.71;42.90;102707.53;1770346;81;21573;-50
2021/03/31 11:46:43;;;;;;;10.30;9.20;;;;;;;14.71;43.97;102703.59;1760266;81;21141;-49
2021/03/31 11:49:11;;;;;;;10.32;9.00;;;;;;;14.69;44.59;102701.84;1722803;83;21581;-50
2021/03/31 11:51:39;;;;;;;9.33;8.33;;;;;;;14.67;44.80;102694.90;1769429;81;21153;-50
2021/03/31 11:54:08;;;;;;;10.65;8.65;;;;;;;14.68;44.93;102693.56;1767769;81;21502;-49
2021/03/31 11:56:36;;;;;;;9.98;8.98;;;;;;;14.66;44.94;102687.47;1769807;81;21595;-50
2021/03/31 11:59:05;;;;;;;11.50;9.38;;;;;;;14.67;45.26;102684.42;1767050;81;21275;-50